createdAt,value
2023-02-27T00:03:06.749Z,4.7
2023-02-27T00:08:06.759Z,4.8
2023-02-27T00:13:06.772Z,5.4
2023-02-27T00:18:06.775Z,5.1
2023-02-27T00:23:06.761Z,3.4
2023-02-27T00:28:06.754Z,4.0
2023-02-27T00:33:06.756Z,4.6
2023-02-27T00:38:06.750Z,4.5
2023-02-27T00:43:06.760Z,5.0
2023-02-27T00:48:06.773Z,3.1
2023-02-27T00:53:06.756Z,2.7
2023-02-27T00:58:06.760Z,7.2
2023-02-27T01:03:06.765Z,4.5
2023-02-27T01:08:06.764Z,3.3
2023-02-27T01:13:06.762Z,4.0
2023-02-27T01:18:06.766Z,4.2
2023-02-27T01:23:06.768Z,3.8
2023-02-27T01:28:06.767Z,5.3
2023-02-27T01:33:06.781Z,4.6
2023-02-27T01:38:06.772Z,3.1
2023-02-27T01:43:06.767Z,5.5
2023-02-27T01:48:06.796Z,3.6
2023-02-27T01:53:06.776Z,3.4
2023-02-27T01:58:06.774Z,4.0
2023-02-27T02:03:06.791Z,4.1
2023-02-27T02:08:06.775Z,5.6
2023-02-27T02:13:06.775Z,4.3
2023-02-27T02:18:06.785Z,4.2
2023-02-27T02:23:06.795Z,3.1
2023-02-27T02:28:06.789Z,4.2
2023-02-27T02:33:06.784Z,4.7
2023-02-27T02:38:06.784Z,4.9
2023-02-27T02:43:06.784Z,5.6
2023-02-27T02:48:06.789Z,3.9
2023-02-27T02:53:06.780Z,3.3
2023-02-27T02:58:06.791Z,3.7
2023-02-27T03:03:06.794Z,3.9
2023-02-27T03:08:06.786Z,3.7
2023-02-27T03:13:06.793Z,4.1
2023-02-27T03:18:06.798Z,3.5
2023-02-27T03:23:06.787Z,6.1
2023-02-27T03:28:06.795Z,3.8
2023-02-27T03:33:06.799Z,4.3
2023-02-27T03:38:06.794Z,7.1
2023-02-27T03:43:06.786Z,2.5
2023-02-27T03:48:06.794Z,4.6
2023-02-27T03:53:06.796Z,5.5
2023-02-27T03:58:06.800Z,6.3
2023-02-27T04:03:06.878Z,4.0
2023-02-27T04:08:06.792Z,4.8
2023-02-27T04:13:06.793Z,4.6
2023-02-27T04:18:06.806Z,6.4
2023-02-27T04:23:06.799Z,3.0
2023-02-27T04:28:06.801Z,5.6
2023-02-27T04:33:06.796Z,3.2
2023-02-27T04:38:06.807Z,3.9
2023-02-27T04:43:06.811Z,5.2
2023-02-27T04:48:06.816Z,5.0
2023-02-27T04:53:06.815Z,4.9
2023-02-27T04:58:06.819Z,4.0
2023-02-27T05:03:06.815Z,4.7
2023-02-27T05:08:06.822Z,4.2
2023-02-27T05:13:06.829Z,4.3
2023-02-27T05:18:06.853Z,3.8
2023-02-27T05:23:06.815Z,3.5
2023-02-27T05:28:06.832Z,3.5
2023-02-27T05:33:06.816Z,5.4
2023-02-27T05:38:06.816Z,5.4
2023-02-27T05:43:06.815Z,6.9
2023-02-27T05:48:06.812Z,2.9
2023-02-27T05:53:06.817Z,3.8
2023-02-27T05:58:06.833Z,4.3
2023-02-27T06:03:06.856Z,7.4
2023-02-27T06:08:06.822Z,3.6
2023-02-27T06:13:06.831Z,5.3
2023-02-27T06:18:06.830Z,5.3
2023-02-27T06:23:06.855Z,4.0
2023-02-27T06:28:06.829Z,4.4
2023-02-27T06:33:06.935Z,5.3
2023-02-27T06:38:06.832Z,4.1
2023-02-27T06:43:07.148Z,4.5
2023-02-27T06:48:06.828Z,5.2
2023-02-27T06:53:06.833Z,4.8
2023-02-27T06:58:06.826Z,4.8
2023-02-27T07:03:06.848Z,5.2
2023-02-27T07:08:06.826Z,6.0
2023-02-27T07:13:06.830Z,5.8
2023-02-27T07:18:06.837Z,4.2
2023-02-27T07:23:06.841Z,5.7
2023-02-27T07:28:06.944Z,6.3
2023-02-27T07:33:06.880Z,4.0
2023-02-27T07:38:06.847Z,7.5
2023-02-27T07:43:06.848Z,7.5
2023-02-27T07:48:06.851Z,5.6
2023-02-27T07:53:06.917Z,5.7
2023-02-27T07:58:06.856Z,4.9
2023-02-27T08:03:06.879Z,5.7
2023-02-27T08:08:06.861Z,6.5
2023-02-27T08:13:06.865Z,4.5
2023-02-27T08:18:06.867Z,3.8
2023-02-27T08:23:06.887Z,3.8
2023-02-27T08:28:06.867Z,6.4
2023-02-27T08:33:06.871Z,4.8
2023-02-27T08:38:06.795Z,3.3
2023-02-27T08:43:06.868Z,5.6
2023-02-27T08:48:06.988Z,3.6
2023-02-27T08:53:06.781Z,3.9
2023-02-27T08:58:06.898Z,4.3
2023-02-27T09:03:06.849Z,3.4
2023-02-27T09:08:06.780Z,5.6
2023-02-27T09:13:07.115Z,4.0
2023-02-27T09:18:06.804Z,3.4
2023-02-27T09:23:06.785Z,5.8
2023-02-27T09:28:06.800Z,4.8
2023-02-27T09:33:06.885Z,4.2
2023-02-27T09:38:06.906Z,3.3
2023-02-27T09:43:06.988Z,4.6
2023-02-27T09:48:06.893Z,3.3
2023-02-27T09:53:06.894Z,2.6
2023-02-27T09:58:06.908Z,3.8
2023-02-27T10:03:06.976Z,4.6
2023-02-27T10:08:06.932Z,4.9
2023-02-27T10:13:06.917Z,2.2
2023-02-27T10:18:20.147Z,2.6
2023-02-27T10:23:06.908Z,1.7
2023-02-27T10:28:06.908Z,4.8
2023-02-27T10:33:07.028Z,3.9
2023-02-27T10:38:06.913Z,5.0
2023-02-27T10:43:06.941Z,3.6
2023-02-27T10:48:06.925Z,4.3
2023-02-27T10:53:06.935Z,3.2
2023-02-27T10:58:07.237Z,2.8
2023-02-27T11:03:06.941Z,5.4
2023-02-27T11:08:06.922Z,5.5
2023-02-27T11:13:06.930Z,3.7
2023-02-27T11:18:06.921Z,4.9
2023-02-27T11:23:06.928Z,2.8
2023-02-27T11:28:06.928Z,3.6
2023-02-27T11:33:06.932Z,3.0
2023-02-27T11:38:06.935Z,2.3
2023-02-27T11:43:06.940Z,3.3
2023-02-27T11:48:06.938Z,2.4
2023-02-27T11:53:06.945Z,2.2
2023-02-27T11:58:06.945Z,3.4
2023-02-27T12:03:07.024Z,2.5
2023-02-27T12:08:06.956Z,2.7
2023-02-27T12:13:06.958Z,2.6
2023-02-27T12:18:06.983Z,1.6
2023-02-27T12:23:06.951Z,3.2
2023-02-27T12:28:06.968Z,3.4
2023-02-27T12:33:06.959Z,1.8
2023-02-27T12:38:07.385Z,2.9
2023-02-27T12:43:07.016Z,1.6
2023-02-27T12:48:06.971Z,3.9
2023-02-27T12:53:06.962Z,1.3
2023-02-27T12:58:06.997Z,3.3
2023-02-27T13:03:07.104Z,2.0
2023-02-27T13:08:06.981Z,2.2
2023-02-27T13:13:08.804Z,1.6
2023-02-27T13:18:06.977Z,3.6
2023-02-27T13:23:06.983Z,2.0
2023-02-27T13:28:06.995Z,2.6
2023-02-27T13:33:07.346Z,3.2
2023-02-27T13:38:06.979Z,3.4
2023-02-27T13:43:07.054Z,2.5
2023-02-27T13:48:06.985Z,1.8
2023-02-27T13:53:08.005Z,5.4
2023-02-27T13:58:06.988Z,2.6
2023-02-27T14:03:07.080Z,2.6
2023-02-27T14:08:06.996Z,3.5
2023-02-27T14:13:06.988Z,2.1
2023-02-27T14:18:16.034Z,3.9
2023-02-27T14:23:07.006Z,2.6
2023-02-27T14:28:06.993Z,4.2
2023-02-27T14:33:08.209Z,1.6
2023-02-27T14:38:06.993Z,2.2
2023-02-27T14:43:07.007Z,2.1
2023-02-27T14:48:07.009Z,2.5
2023-02-27T14:53:07.010Z,2.0
2023-02-27T14:58:07.337Z,3.3
2023-02-27T15:03:08.376Z,2.1
2023-02-27T15:08:07.023Z,2.0
2023-02-27T15:13:07.012Z,2.1
2023-02-27T15:18:07.011Z,2.3
2023-02-27T15:23:07.020Z,2.5
2023-02-27T15:28:07.017Z,2.5
2023-02-27T15:33:07.359Z,4.2
2023-02-27T15:38:07.022Z,2.9
2023-02-27T15:43:07.050Z,2.1
2023-02-27T15:48:07.029Z,2.8
2023-02-27T15:53:07.038Z,2.1
2023-02-27T15:58:07.028Z,3.7
2023-02-27T16:03:07.033Z,2.4
2023-02-27T16:08:07.064Z,2.0
2023-02-27T16:13:07.022Z,2.3
2023-02-27T16:18:07.022Z,2.8
2023-02-27T16:23:07.029Z,2.7
2023-02-27T16:28:07.041Z,3.8
2023-02-27T16:33:07.026Z,2.8
2023-02-27T16:38:07.134Z,2.0
2023-02-27T16:43:07.030Z,4.5
2023-02-27T16:48:07.031Z,3.3
2023-02-27T16:53:07.035Z,3.9
2023-02-27T16:58:07.032Z,4.0
2023-02-27T17:03:07.040Z,4.4
2023-02-27T17:08:07.033Z,2.2
2023-02-27T17:13:07.038Z,3.0
2023-02-27T17:18:09.129Z,2.7
2023-02-27T17:23:07.044Z,3.0
2023-02-27T17:28:07.041Z,3.9
2023-02-27T17:33:07.041Z,2.7
2023-02-27T17:38:07.520Z,1.8
2023-02-27T17:43:07.042Z,2.2
2023-02-27T17:48:07.045Z,2.9
2023-02-27T17:53:07.048Z,5.0
2023-02-27T17:58:07.049Z,3.2
2023-02-27T18:03:07.063Z,4.0
2023-02-27T18:08:07.065Z,5.9
2023-02-27T18:13:07.052Z,3.2
2023-02-27T18:18:07.057Z,3.7
2023-02-27T18:23:07.061Z,3.3
2023-02-27T18:28:07.050Z,3.8
2023-02-27T18:33:07.164Z,2.9
2023-02-27T18:38:07.068Z,5.4
2023-02-27T18:43:07.048Z,4.2
2023-02-27T18:48:07.056Z,5.7
2023-02-27T18:53:07.061Z,8.8
2023-02-27T18:58:07.059Z,5.7
2023-02-27T19:03:07.133Z,4.8
2023-02-27T19:08:07.067Z,5.0
2023-02-27T19:13:06.974Z,5.1
2023-02-27T19:18:06.971Z,4.2
2023-02-27T19:23:07.079Z,7.1
2023-02-27T19:28:06.979Z,5.7
2023-02-27T19:33:06.968Z,6.2
2023-02-27T19:38:06.976Z,4.9
2023-02-27T19:43:06.971Z,5.9
2023-02-27T19:48:06.979Z,5.6
2023-02-27T19:53:06.987Z,6.1
2023-02-27T19:58:06.967Z,5.6
2023-02-27T20:03:06.969Z,8.4
2023-02-27T20:08:06.976Z,8.4
2023-02-27T20:13:06.977Z,6.6
2023-02-27T20:18:06.981Z,7.7
2023-02-27T20:23:06.982Z,6.2
2023-02-27T20:28:07.082Z,5.8
2023-02-27T20:33:07.068Z,8.8
2023-02-27T20:38:07.083Z,5.4
2023-02-27T20:43:07.074Z,7.2
2023-02-27T20:48:06.999Z,8.5
2023-02-27T20:53:06.985Z,7.6
2023-02-27T20:58:07.088Z,8.1
2023-02-27T21:03:06.994Z,9.7
2023-02-27T21:08:07.089Z,9.1
2023-02-27T21:13:07.092Z,8.1
2023-02-27T21:18:07.101Z,9.1
2023-02-27T21:23:07.082Z,11.0
2023-02-27T21:28:07.087Z,7.5
2023-02-27T21:33:07.103Z,9.3
2023-02-27T21:38:07.084Z,10.6
2023-02-27T21:43:07.085Z,7.7
2023-02-27T21:48:07.086Z,11.6
2023-02-27T21:53:07.089Z,12.0
2023-02-27T21:58:07.092Z,11.9
2023-02-27T22:03:07.088Z,12.0
2023-02-27T22:08:07.106Z,9.1
2023-02-27T22:13:07.098Z,10.7
2023-02-27T22:18:07.102Z,10.2
2023-02-27T22:23:07.094Z,10.5
2023-02-27T22:28:07.099Z,10.0
2023-02-27T22:33:07.120Z,11.8
2023-02-27T22:38:07.153Z,10.8
2023-02-27T22:43:07.093Z,11.1
2023-02-27T22:48:07.100Z,8.3
2023-02-27T22:53:07.120Z,11.4
2023-02-27T22:58:07.106Z,11.2
2023-02-27T23:03:07.116Z,10.4
2023-02-27T23:08:07.140Z,9.2
2023-02-27T23:13:07.106Z,7.9
2023-02-27T23:18:07.134Z,9.6
2023-02-27T23:23:07.111Z,10.8
2023-02-27T23:28:07.031Z,11.1
2023-02-27T23:33:07.135Z,8.2
2023-02-27T23:38:07.115Z,9.6
2023-02-27T23:43:07.117Z,8.4
2023-02-27T23:48:07.112Z,8.7
2023-02-27T23:53:07.132Z,9.2
2023-02-27T23:58:07.130Z,8.1
